Bee Cave, Texas
Current Conditions -  °F | °C
As of 5:15 AM on Saturday 25 Oct 2014 (Local Time) from KRYW Reporting Station
Clear Clear  
Wind Chill: 68°   Ceiling: Unl
Heat Index: 68°   Visibility: 10mi
Dew Point: 57°   Wind: 7mph
Humidity: 67%   Direction: 230°SW
Pressure: 30.15"   Gusts: NA
Location:  30.3763°N, 97.9464°W
Report Text: KRYW 251015Z AUTO 23006KT 10SM CLR 20/14 A3015 RMK AO2 T02000138
Loading
Personal Weather Stations






























Interactive Weather Map
Tropical Storm Tracking
New forecast layout! Learn more

10-Day Weather Forecast

Advertisements
Track Severe Weather on mobile